sensor_id;sensor_type;location;lat;lon;timestamp;P1;durP1;ratioP1;P2;durP2;ratioP2
61821;SDS011;47749;51.104;7.008;2024-03-02T00:00:06;4.13;;;1.90;;
61821;SDS011;47749;51.104;7.008;2024-03-02T00:00:32;4.13;;;2.20;;
61821;SDS011;47749;51.104;7.008;2024-03-02T00:00:52;4.57;;;2.37;;
61821;SDS011;47749;51.104;7.008;2024-03-02T00:01:13;4.70;;;2.60;;
61821;SDS011;47749;51.104;7.008;2024-03-02T00:01:34;3.95;;;2.10;;
61821;SDS011;47749;51.104;7.008;2024-03-02T00:01:54;3.60;;;1.90;;
61821;SDS011;47749;51.104;7.008;2024-03-02T00:02:15;4.53;;;2.40;;
61821;SDS011;47749;51.104;7.008;2024-03-02T00:02:39;3.80;;;2.20;;
61821;SDS011;47749;51.104;7.008;2024-03-02T00:03:00;4.28;;;2.10;;
61821;SDS011;47749;51.104;7.008;2024-03-02T00:03:20;4.43;;;2.23;;
61821;SDS011;47749;51.104;7.008;2024-03-02T00:03:41;4.03;;;2.30;;
61821;SDS011;47749;51.104;7.008;2024-03-02T00:04:05;4.13;;;2.40;;
61821;SDS011;47749;51.104;7.008;2024-03-02T00:04:26;4.20;;;2.25;;
61821;SDS011;47749;51.104;7.008;2024-03-02T00:04:47;4.00;;;2.10;;
61821;SDS011;47749;51.104;7.008;2024-03-02T00:05:07;4.50;;;2.20;;
61821;SDS011;47749;51.104;7.008;2024-03-02T00:05:27;4.00;;;2.00;;
61821;SDS011;47749;51.104;7.008;2024-03-02T00:05:51;4.88;;;2.28;;
61821;SDS011;47749;51.104;7.008;2024-03-02T00:06:11;4.53;;;2.35;;
61821;SDS011;47749;51.104;7.008;2024-03-02T00:06:32;4.72;;;2.30;;
61821;SDS011;47749;51.104;7.008;2024-03-02T00:06:52;4.13;;;2.30;;
61821;SDS011;47749;51.104;7.008;2024-03-02T00:07:14;4.65;;;2.35;;
61821;SDS011;47749;51.104;7.008;2024-03-02T00:07:34;3.55;;;2.10;;
61821;SDS011;47749;51.104;7.008;2024-03-02T00:07:55;3.63;;;1.97;;
61821;SDS011;47749;51.104;7.008;2024-03-02T00:08:19;3.55;;;2.10;;
61821;SDS011;47749;51.104;7.008;2024-03-02T00:08:42;3.83;;;2.10;;
61821;SDS011;47749;51.104;7.008;2024-03-02T00:09:02;4.63;;;2.20;;
61821;SDS011;47749;51.104;7.008;2024-03-02T00:09:23;4.10;;;2.20;;
61821;SDS011;47749;51.104;7.008;2024-03-02T00:09:43;3.97;;;2.10;;
61821;SDS011;47749;51.104;7.008;2024-03-02T00:10:05;4.90;;;2.20;;
61821;SDS011;47749;51.104;7.008;2024-03-02T00:10:38;4.55;;;2.17;;
61821;SDS011;47749;51.104;7.008;2024-03-02T00:11:02;3.53;;;2.00;;
61821;SDS011;47749;51.104;7.008;2024-03-02T00:11:23;4.07;;;2.10;;
61821;SDS011;47749;51.104;7.008;2024-03-02T00:11:43;4.63;;;2.10;;
61821;SDS011;47749;51.104;7.008;2024-03-02T00:12:04;4.80;;;2.20;;
61821;SDS011;47749;51.104;7.008;2024-03-02T00:12:25;3.95;;;2.15;;
61821;SDS011;47749;51.104;7.008;2024-03-02T00:12:46;3.55;;;2.03;;
61821;SDS011;47749;51.104;7.008;2024-03-02T00:13:08;4.05;;;2.25;;
61821;SDS011;47749;51.104;7.008;2024-03-02T00:13:28;4.53;;;2.35;;
61821;SDS011;47749;51.104;7.008;2024-03-02T00:13:52;5.18;;;2.35;;
61821;SDS011;47749;51.104;7.008;2024-03-02T00:14:12;4.28;;;2.20;;
61821;SDS011;47749;51.104;7.008;2024-03-02T00:14:32;4.20;;;2.03;;
61821;SDS011;47749;51.104;7.008;2024-03-02T00:14:53;5.17;;;2.27;;
61821;SDS011;47749;51.104;7.008;2024-03-02T00:15:56;5.20;;;2.30;;
61821;SDS011;47749;51.104;7.008;2024-03-02T00:16:16;6.13;;;2.40;;
61821;SDS011;47749;51.104;7.008;2024-03-02T00:16:38;3.95;;;2.20;;
61821;SDS011;47749;51.104;7.008;2024-03-02T00:16:58;5.27;;;2.20;;
61821;SDS011;47749;51.104;7.008;2024-03-02T00:17:21;6.10;;;2.20;;
61821;SDS011;47749;51.104;7.008;2024-03-02T00:17:52;3.55;;;2.10;;
61821;SDS011;47749;51.104;7.008;2024-03-02T00:18:14;4.68;;;2.20;;
61821;SDS011;47749;51.104;7.008;2024-03-02T00:18:35;4.53;;;2.15;;
61821;SDS011;47749;51.104;7.008;2024-03-02T00:18:55;4.45;;;2.25;;
61821;SDS011;47749;51.104;7.008;2024-03-02T00:19:16;5.18;;;2.40;;
61821;SDS011;47749;51.104;7.008;2024-03-02T00:19:38;4.38;;;2.30;;
61821;SDS011;47749;51.104;7.008;2024-03-02T00:19:59;3.85;;;2.42;;
61821;SDS011;47749;51.104;7.008;2024-03-02T00:20:21;4.25;;;2.17;;
61821;SDS011;47749;51.104;7.008;2024-03-02T00:20:42;4.28;;;2.20;;
61821;SDS011;47749;51.104;7.008;2024-03-02T00:21:02;4.33;;;2.13;;
61821;SDS011;47749;51.104;7.008;2024-03-02T00:21:24;4.45;;;2.17;;
61821;SDS011;47749;51.104;7.008;2024-03-02T00:21:47;4.45;;;2.10;;
61821;SDS011;47749;51.104;7.008;2024-03-02T00:22:07;4.63;;;2.10;;
61821;SDS011;47749;51.104;7.008;2024-03-02T00:22:28;4.30;;;2.20;;
61821;SDS011;47749;51.104;7.008;2024-03-02T00:22:49;3.90;;;2.10;;
61821;SDS011;47749;51.104;7.008;2024-03-02T00:23:10;3.78;;;2.17;;
61821;SDS011;47749;51.104;7.008;2024-03-02T00:23:33;4.60;;;2.40;;
61821;SDS011;47749;51.104;7.008;2024-03-02T00:23:53;4.00;;;2.20;;
61821;SDS011;47749;51.104;7.008;2024-03-02T00:25:06;4.47;;;2.30;;
61821;SDS011;47749;51.104;7.008;2024-03-02T00:25:35;4.00;;;2.20;;
61821;SDS011;47749;51.104;7.008;2024-03-02T00:25:56;4.38;;;2.30;;
61821;SDS011;47749;51.104;7.008;2024-03-02T00:26:16;4.20;;;2.47;;
61821;SDS011;47749;51.104;7.008;2024-03-02T00:26:37;4.90;;;2.70;;
61821;SDS011;47749;51.104;7.008;2024-03-02T00:26:57;4.77;;;2.30;;
61821;SDS011;47749;51.104;7.008;2024-03-02T00:27:17;4.20;;;2.40;;
61821;SDS011;47749;51.104;7.008;2024-03-02T00:27:38;4.23;;;2.30;;
61821;SDS011;47749;51.104;7.008;2024-03-02T00:27:58;4.33;;;2.13;;
61821;SDS011;47749;51.104;7.008;2024-03-02T00:28:42;3.95;;;2.15;;
61821;SDS011;47749;51.104;7.008;2024-03-02T00:29:03;4.05;;;2.25;;
61821;SDS011;47749;51.104;7.008;2024-03-02T00:29:24;4.03;;;2.20;;
61821;SDS011;47749;51.104;7.008;2024-03-02T00:29:44;3.88;;;2.10;;
61821;SDS011;47749;51.104;7.008;2024-03-02T00:30:06;3.67;;;2.20;;
61821;SDS011;47749;51.104;7.008;2024-03-02T00:30:55;3.80;;;2.20;;
61821;SDS011;47749;51.104;7.008;2024-03-02T00:31:17;4.13;;;2.20;;
61821;SDS011;47749;51.104;7.008;2024-03-02T00:31:39;3.58;;;2.10;;
61821;SDS011;47749;51.104;7.008;2024-03-02T00:32:00;3.60;;;1.90;;
61821;SDS011;47749;51.104;7.008;2024-03-02T00:32:20;3.63;;;1.90;;
61821;SDS011;47749;51.104;7.008;2024-03-02T00:32:42;4.17;;;2.20;;
61821;SDS011;47749;51.104;7.008;2024-03-02T00:33:06;4.38;;;2.30;;
61821;SDS011;47749;51.104;7.008;2024-03-02T00:33:27;4.32;;;2.13;;
61821;SDS011;47749;51.104;7.008;2024-03-02T00:33:50;4.25;;;2.08;;
61821;SDS011;47749;51.104;7.008;2024-03-02T00:34:10;3.93;;;1.90;;
61821;SDS011;47749;51.104;7.008;2024-03-02T00:34:33;3.63;;;2.08;;
61821;SDS011;47749;51.104;7.008;2024-03-02T00:34:54;4.00;;;2.20;;
61821;SDS011;47749;51.104;7.008;2024-03-02T00:35:14;3.23;;;1.97;;
61821;SDS011;47749;51.104;7.008;2024-03-02T00:35:34;4.37;;;2.10;;
61821;SDS011;47749;51.104;7.008;2024-03-02T00:35:54;4.33;;;2.00;;
61821;SDS011;47749;51.104;7.008;2024-03-02T00:36:16;4.68;;;2.17;;
61821;SDS011;47749;51.104;7.008;2024-03-02T00:36:37;3.90;;;1.98;;
61821;SDS011;47749;51.104;7.008;2024-03-02T00:36:58;4.10;;;1.90;;
61821;SDS011;47749;51.104;7.008;2024-03-02T00:37:19;3.30;;;1.98;;
61821;SDS011;47749;51.104;7.008;2024-03-02T00:37:40;3.28;;;2.00;;
61821;SDS011;47749;51.104;7.008;2024-03-02T00:38:04;4.00;;;2.10;;
61821;SDS011;47749;51.104;7.008;2024-03-02T00:38:24;3.72;;;2.03;;
61821;SDS011;47749;51.104;7.008;2024-03-02T00:38:46;4.07;;;2.10;;
61821;SDS011;47749;51.104;7.008;2024-03-02T00:39:06;4.38;;;2.13;;
61821;SDS011;47749;51.104;7.008;2024-03-02T00:39:27;3.88;;;2.08;;
61821;SDS011;47749;51.104;7.008;2024-03-02T00:39:49;3.80;;;2.00;;
61821;SDS011;47749;51.104;7.008;2024-03-02T00:40:09;3.80;;;2.00;;
61821;SDS011;47749;51.104;7.008;2024-03-02T00:40:33;5.18;;;2.00;;
61821;SDS011;47749;51.104;7.008;2024-03-02T00:40:53;4.57;;;2.20;;
61821;SDS011;47749;51.104;7.008;2024-03-02T00:41:24;3.95;;;2.00;;
61821;SDS011;47749;51.104;7.008;2024-03-02T00:41:44;4.10;;;2.20;;
61821;SDS011;47749;51.104;7.008;2024-03-02T00:42:05;4.17;;;2.30;;
61821;SDS011;47749;51.104;7.008;2024-03-02T00:42:25;3.80;;;2.15;;
61821;SDS011;47749;51.104;7.008;2024-03-02T00:42:45;4.47;;;2.13;;
61821;SDS011;47749;51.104;7.008;2024-03-02T00:43:05;4.40;;;2.20;;
61821;SDS011;47749;51.104;7.008;2024-03-02T00:43:51;4.45;;;2.20;;
61821;SDS011;47749;51.104;7.008;2024-03-02T00:44:14;3.80;;;2.10;;
61821;SDS011;47749;51.104;7.008;2024-03-02T00:44:34;3.70;;;2.10;;
61821;SDS011;47749;51.104;7.008;2024-03-02T00:44:57;3.42;;;2.03;;
61821;SDS011;47749;51.104;7.008;2024-03-02T00:45:17;3.50;;;1.97;;
61821;SDS011;47749;51.104;7.008;2024-03-02T00:45:39;3.35;;;1.88;;
61821;SDS011;47749;51.104;7.008;2024-03-02T00:45:59;3.90;;;2.20;;
61821;SDS011;47749;51.104;7.008;2024-03-02T00:46:20;4.10;;;2.13;;
61821;SDS011;47749;51.104;7.008;2024-03-02T00:46:41;4.82;;;2.20;;
61821;SDS011;47749;51.104;7.008;2024-03-02T00:47:01;4.78;;;2.08;;
61821;SDS011;47749;51.104;7.008;2024-03-02T00:47:22;3.90;;;2.00;;
61821;SDS011;47749;51.104;7.008;2024-03-02T00:47:42;3.95;;;2.13;;
61821;SDS011;47749;51.104;7.008;2024-03-02T00:48:03;4.07;;;2.40;;
61821;SDS011;47749;51.104;7.008;2024-03-02T00:48:24;3.92;;;2.20;;
61821;SDS011;47749;51.104;7.008;2024-03-02T00:48:48;3.70;;;1.97;;
61821;SDS011;47749;51.104;7.008;2024-03-02T00:49:30;4.17;;;1.97;;
61821;SDS011;47749;51.104;7.008;2024-03-02T00:49:51;4.00;;;2.03;;
61821;SDS011;47749;51.104;7.008;2024-03-02T00:50:12;3.40;;;1.97;;
61821;SDS011;47749;51.104;7.008;2024-03-02T00:50:33;4.03;;;1.95;;
61821;SDS011;47749;51.104;7.008;2024-03-02T00:50:53;3.90;;;2.10;;
61821;SDS011;47749;51.104;7.008;2024-03-02T00:51:14;3.83;;;2.00;;
61821;SDS011;47749;51.104;7.008;2024-03-02T00:51:34;4.57;;;2.23;;
61821;SDS011;47749;51.104;7.008;2024-03-02T00:51:55;4.90;;;2.30;;
61821;SDS011;47749;51.104;7.008;2024-03-02T00:52:16;4.55;;;2.20;;
61821;SDS011;47749;51.104;7.008;2024-03-02T00:52:36;4.60;;;2.40;;
61821;SDS011;47749;51.104;7.008;2024-03-02T00:52:56;4.20;;;2.30;;
61821;SDS011;47749;51.104;7.008;2024-03-02T00:53:17;3.57;;;2.00;;
61821;SDS011;47749;51.104;7.008;2024-03-02T00:53:37;3.97;;;2.00;;
61821;SDS011;47749;51.104;7.008;2024-03-02T00:53:58;4.13;;;2.03;;
61821;SDS011;47749;51.104;7.008;2024-03-02T00:54:19;3.70;;;1.88;;
61821;SDS011;47749;51.104;7.008;2024-03-02T00:54:40;3.70;;;1.90;;
61821;SDS011;47749;51.104;7.008;2024-03-02T00:55:00;3.83;;;2.10;;
61821;SDS011;47749;51.104;7.008;2024-03-02T00:55:20;3.47;;;2.03;;
61821;SDS011;47749;51.104;7.008;2024-03-02T00:55:41;3.33;;;1.98;;
61821;SDS011;47749;51.104;7.008;2024-03-02T00:56:04;4.05;;;2.10;;
61821;SDS011;47749;51.104;7.008;2024-03-02T00:56:29;3.40;;;1.90;;
61821;SDS011;47749;51.104;7.008;2024-03-02T00:56:49;4.13;;;2.00;;
61821;SDS011;47749;51.104;7.008;2024-03-02T00:57:10;4.32;;;2.08;;
61821;SDS011;47749;51.104;7.008;2024-03-02T00:57:32;4.32;;;2.13;;
61821;SDS011;47749;51.104;7.008;2024-03-02T00:57:54;3.50;;;1.83;;
61821;SDS011;47749;51.104;7.008;2024-03-02T00:58:15;3.60;;;1.83;;
61821;SDS011;47749;51.104;7.008;2024-03-02T00:58:35;3.87;;;2.00;;
61821;SDS011;47749;51.104;7.008;2024-03-02T00:58:55;3.87;;;1.90;;
61821;SDS011;47749;51.104;7.008;2024-03-02T00:59:15;4.00;;;2.00;;
61821;SDS011;47749;51.104;7.008;2024-03-02T00:59:36;3.90;;;2.00;;
61821;SDS011;47749;51.104;7.008;2024-03-02T00:59:56;4.05;;;1.80;;
61821;SDS011;47749;51.104;7.008;2024-03-02T01:00:16;5.00;;;1.90;;
61821;SDS011;47749;51.104;7.008;2024-03-02T01:00:38;3.60;;;1.95;;
61821;SDS011;47749;51.104;7.008;2024-03-02T01:00:58;3.78;;;1.98;;
61821;SDS011;47749;51.104;7.008;2024-03-02T01:01:18;3.17;;;1.80;;
61821;SDS011;47749;51.104;7.008;2024-03-02T01:01:42;3.47;;;1.83;;
61821;SDS011;47749;51.104;7.008;2024-03-02T01:02:03;3.47;;;1.92;;
61821;SDS011;47749;51.104;7.008;2024-03-02T01:02:24;3.47;;;1.92;;
61821;SDS011;47749;51.104;7.008;2024-03-02T01:02:44;3.50;;;1.90;;
61821;SDS011;47749;51.104;7.008;2024-03-02T01:03:06;3.58;;;1.90;;
61821;SDS011;47749;51.104;7.008;2024-03-02T01:03:27;3.22;;;1.77;;
61821;SDS011;47749;51.104;7.008;2024-03-02T01:03:48;4.00;;;1.90;;
61821;SDS011;47749;51.104;7.008;2024-03-02T01:04:09;4.40;;;2.00;;
61821;SDS011;47749;51.104;7.008;2024-03-02T01:04:29;4.00;;;2.00;;
61821;SDS011;47749;51.104;7.008;2024-03-02T01:04:49;3.92;;;1.90;;
61821;SDS011;47749;51.104;7.008;2024-03-02T01:05:09;3.77;;;1.90;;
61821;SDS011;47749;51.104;7.008;2024-03-02T01:05:30;3.93;;;1.80;;
61821;SDS011;47749;51.104;7.008;2024-03-02T01:05:50;4.03;;;1.80;;
61821;SDS011;47749;51.104;7.008;2024-03-02T01:06:10;3.97;;;1.90;;
61821;SDS011;47749;51.104;7.008;2024-03-02T01:06:31;3.47;;;1.93;;
61821;SDS011;47749;51.104;7.008;2024-03-02T01:06:51;3.60;;;1.70;;
61821;SDS011;47749;51.104;7.008;2024-03-02T01:07:11;3.90;;;1.90;;
61821;SDS011;47749;51.104;7.008;2024-03-02T01:07:31;3.27;;;1.70;;
61821;SDS011;47749;51.104;7.008;2024-03-02T01:07:52;3.35;;;1.90;;
61821;SDS011;47749;51.104;7.008;2024-03-02T01:08:12;3.90;;;1.80;;
61821;SDS011;47749;51.104;7.008;2024-03-02T01:08:33;4.03;;;2.00;;
61821;SDS011;47749;51.104;7.008;2024-03-02T01:08:53;4.03;;;1.90;;
61821;SDS011;47749;51.104;7.008;2024-03-02T01:09:14;3.28;;;1.77;;
61821;SDS011;47749;51.104;7.008;2024-03-02T01:09:34;2.93;;;1.70;;
61821;SDS011;47749;51.104;7.008;2024-03-02T01:09:54;3.33;;;1.80;;
61821;SDS011;47749;51.104;7.008;2024-03-02T01:10:14;2.92;;;1.52;;
61821;SDS011;47749;51.104;7.008;2024-03-02T01:10:35;3.90;;;1.87;;
61821;SDS011;47749;51.104;7.008;2024-03-02T01:10:55;3.77;;;1.93;;
61821;SDS011;47749;51.104;7.008;2024-03-02T01:11:16;3.53;;;2.00;;
61821;SDS011;47749;51.104;7.008;2024-03-02T01:11:36;3.53;;;1.90;;
61821;SDS011;47749;51.104;7.008;2024-03-02T01:11:56;3.57;;;1.80;;
61821;SDS011;47749;51.104;7.008;2024-03-02T01:12:17;3.27;;;1.73;;
61821;SDS011;47749;51.104;7.008;2024-03-02T01:12:37;2.90;;;1.60;;
61821;SDS011;47749;51.104;7.008;2024-03-02T01:12:57;3.13;;;1.80;;
61821;SDS011;47749;51.104;7.008;2024-03-02T01:13:17;3.27;;;1.80;;
61821;SDS011;47749;51.104;7.008;2024-03-02T01:13:38;3.53;;;1.70;;
61821;SDS011;47749;51.104;7.008;2024-03-02T01:13:58;3.28;;;1.60;;
61821;SDS011;47749;51.104;7.008;2024-03-02T01:14:18;3.47;;;1.63;;
61821;SDS011;47749;51.104;7.008;2024-03-02T01:14:38;3.27;;;1.70;;
61821;SDS011;47749;51.104;7.008;2024-03-02T01:14:59;3.13;;;1.70;;
61821;SDS011;47749;51.104;7.008;2024-03-02T01:15:19;3.03;;;1.67;;
61821;SDS011;47749;51.104;7.008;2024-03-02T01:15:39;3.00;;;1.60;;
61821;SDS011;47749;51.104;7.008;2024-03-02T01:16:00;3.00;;;1.80;;
61821;SDS011;47749;51.104;7.008;2024-03-02T01:16:20;3.05;;;1.60;;
61821;SDS011;47749;51.104;7.008;2024-03-02T01:16:41;3.20;;;1.70;;
61821;SDS011;47749;51.104;7.008;2024-03-02T01:17:01;3.10;;;1.60;;
61821;SDS011;47749;51.104;7.008;2024-03-02T01:17:24;3.15;;;1.50;;
61821;SDS011;47749;51.104;7.008;2024-03-02T01:17:44;3.10;;;1.75;;
61821;SDS011;47749;51.104;7.008;2024-03-02T01:18:04;2.87;;;1.73;;
61821;SDS011;47749;51.104;7.008;2024-03-02T01:18:25;2.90;;;1.70;;
61821;SDS011;47749;51.104;7.008;2024-03-02T01:18:45;3.38;;;1.80;;
61821;SDS011;47749;51.104;7.008;2024-03-02T01:19:06;3.20;;;1.70;;
61821;SDS011;47749;51.104;7.008;2024-03-02T01:19:26;3.63;;;1.70;;
61821;SDS011;47749;51.104;7.008;2024-03-02T01:19:47;3.60;;;1.70;;
61821;SDS011;47749;51.104;7.008;2024-03-02T01:20:07;3.20;;;1.70;;
61821;SDS011;47749;51.104;7.008;2024-03-02T01:20:28;3.70;;;1.80;;
61821;SDS011;47749;51.104;7.008;2024-03-02T01:20:48;3.60;;;1.80;;
61821;SDS011;47749;51.104;7.008;2024-03-02T01:21:11;3.42;;;1.80;;
61821;SDS011;47749;51.104;7.008;2024-03-02T01:21:31;3.87;;;1.80;;
61821;SDS011;47749;51.104;7.008;2024-03-02T01:21:52;3.42;;;1.70;;
61821;SDS011;47749;51.104;7.008;2024-03-02T01:22:12;3.70;;;1.80;;
61821;SDS011;47749;51.104;7.008;2024-03-02T01:22:32;3.38;;;1.58;;
61821;SDS011;47749;51.104;7.008;2024-03-02T01:22:53;3.80;;;1.90;;
61821;SDS011;47749;51.104;7.008;2024-03-02T01:23:13;3.70;;;1.90;;
61821;SDS011;47749;51.104;7.008;2024-03-02T01:23:33;3.05;;;1.80;;
61821;SDS011;47749;51.104;7.008;2024-03-02T01:23:53;3.00;;;1.53;;
61821;SDS011;47749;51.104;7.008;2024-03-02T01:24:14;3.40;;;1.60;;
61821;SDS011;47749;51.104;7.008;2024-03-02T01:24:34;3.30;;;1.80;;
61821;SDS011;47749;51.104;7.008;2024-03-02T01:24:54;3.60;;;2.00;;
61821;SDS011;47749;51.104;7.008;2024-03-02T01:25:15;3.08;;;1.80;;
61821;SDS011;47749;51.104;7.008;2024-03-02T01:25:35;3.07;;;1.50;;
61821;SDS011;47749;51.104;7.008;2024-03-02T01:25:55;3.13;;;1.57;;
61821;SDS011;47749;51.104;7.008;2024-03-02T01:26:16;2.85;;;1.45;;
61821;SDS011;47749;51.104;7.008;2024-03-02T01:26:36;2.93;;;1.47;;
61821;SDS011;47749;51.104;7.008;2024-03-02T01:26:56;3.30;;;1.57;;
61821;SDS011;47749;51.104;7.008;2024-03-02T01:27:17;2.83;;;1.65;;
61821;SDS011;47749;51.104;7.008;2024-03-02T01:27:37;3.17;;;1.80;;
61821;SDS011;47749;51.104;7.008;2024-03-02T01:27:57;3.07;;;1.67;;
61821;SDS011;47749;51.104;7.008;2024-03-02T01:28:18;3.55;;;1.90;;
61821;SDS011;47749;51.104;7.008;2024-03-02T01:28:39;3.40;;;1.55;;
61821;SDS011;47749;51.104;7.008;2024-03-02T01:28:59;3.20;;;1.60;;
61821;SDS011;47749;51.104;7.008;2024-03-02T01:29:19;3.13;;;1.60;;
61821;SDS011;47749;51.104;7.008;2024-03-02T01:29:39;3.73;;;1.60;;
61821;SDS011;47749;51.104;7.008;2024-03-02T01:30:00;4.37;;;1.80;;
61821;SDS011;47749;51.104;7.008;2024-03-02T01:30:20;3.80;;;1.60;;
61821;SDS011;47749;51.104;7.008;2024-03-02T01:30:41;2.80;;;1.60;;
61821;SDS011;47749;51.104;7.008;2024-03-02T01:31:01;3.33;;;1.70;;
61821;SDS011;47749;51.104;7.008;2024-03-02T01:31:22;3.23;;;1.50;;
61821;SDS011;47749;51.104;7.008;2024-03-02T01:31:42;3.58;;;1.70;;
61821;SDS011;47749;51.104;7.008;2024-03-02T01:32:03;4.17;;;1.60;;
61821;SDS011;47749;51.104;7.008;2024-03-02T01:32:23;3.30;;;1.60;;
61821;SDS011;47749;51.104;7.008;2024-03-02T01:32:43;3.77;;;1.60;;
61821;SDS011;47749;51.104;7.008;2024-03-02T01:33:04;3.53;;;1.50;;
61821;SDS011;47749;51.104;7.008;2024-03-02T01:33:25;3.45;;;1.60;;
61821;SDS011;47749;51.104;7.008;2024-03-02T01:33:45;4.10;;;1.73;;
61821;SDS011;47749;51.104;7.008;2024-03-02T01:34:06;3.55;;;1.63;;
61821;SDS011;47749;51.104;7.008;2024-03-02T01:34:26;3.80;;;1.57;;
61821;SDS011;47749;51.104;7.008;2024-03-02T01:34:47;3.00;;;1.60;;
61821;SDS011;47749;51.104;7.008;2024-03-02T01:35:07;2.73;;;1.50;;
61821;SDS011;47749;51.104;7.008;2024-03-02T01:35:27;3.15;;;1.70;;
61821;SDS011;47749;51.104;7.008;2024-03-02T01:35:48;3.13;;;1.63;;
61821;SDS011;47749;51.104;7.008;2024-03-02T01:36:08;3.33;;;1.60;;
61821;SDS011;47749;51.104;7.008;2024-03-02T01:36:28;3.38;;;1.60;;
61821;SDS011;47749;51.104;7.008;2024-03-02T01:36:48;3.20;;;1.53;;
61821;SDS011;47749;51.104;7.008;2024-03-02T01:37:09;3.33;;;1.60;;
61821;SDS011;47749;51.104;7.008;2024-03-02T01:37:30;3.30;;;1.50;;
61821;SDS011;47749;51.104;7.008;2024-03-02T01:37:50;4.03;;;1.60;;
61821;SDS011;47749;51.104;7.008;2024-03-02T01:38:10;3.57;;;1.43;;
61821;SDS011;47749;51.104;7.008;2024-03-02T01:38:31;3.23;;;1.57;;
61821;SDS011;47749;51.104;7.008;2024-03-02T01:38:51;3.13;;;1.60;;
61821;SDS011;47749;51.104;7.008;2024-03-02T01:39:11;3.00;;;1.50;;
61821;SDS011;47749;51.104;7.008;2024-03-02T01:39:32;3.03;;;1.50;;
61821;SDS011;47749;51.104;7.008;2024-03-02T01:39:52;2.47;;;1.40;;
61821;SDS011;47749;51.104;7.008;2024-03-02T01:40:12;2.90;;;1.50;;
61821;SDS011;47749;51.104;7.008;2024-03-02T01:40:33;3.00;;;1.40;;
61821;SDS011;47749;51.104;7.008;2024-03-02T01:40:54;3.92;;;1.70;;
61821;SDS011;47749;51.104;7.008;2024-03-02T01:41:16;2.45;;;1.40;;
61821;SDS011;47749;51.104;7.008;2024-03-02T01:41:37;3.17;;;1.30;;
61821;SDS011;47749;51.104;7.008;2024-03-02T01:41:57;2.93;;;1.53;;
61821;SDS011;47749;51.104;7.008;2024-03-02T01:42:17;3.60;;;1.70;;
61821;SDS011;47749;51.104;7.008;2024-03-02T01:42:38;3.85;;;1.80;;
61821;SDS011;47749;51.104;7.008;2024-03-02T01:42:58;4.13;;;1.60;;
61821;SDS011;47749;51.104;7.008;2024-03-02T01:43:19;3.37;;;1.60;;
61821;SDS011;47749;51.104;7.008;2024-03-02T01:43:39;3.27;;;1.73;;
61821;SDS011;47749;51.104;7.008;2024-03-02T01:43:59;3.13;;;1.58;;
61821;SDS011;47749;51.104;7.008;2024-03-02T01:44:20;3.33;;;1.53;;
61821;SDS011;47749;51.104;7.008;2024-03-02T01:44:40;3.00;;;1.42;;
61821;SDS011;47749;51.104;7.008;2024-03-02T01:45:00;3.07;;;1.40;;
61821;SDS011;47749;51.104;7.008;2024-03-02T01:45:21;3.53;;;1.50;;
61821;SDS011;47749;51.104;7.008;2024-03-02T01:45:41;3.47;;;1.42;;
61821;SDS011;47749;51.104;7.008;2024-03-02T01:46:01;3.30;;;1.40;;
61821;SDS011;47749;51.104;7.008;2024-03-02T01:46:22;3.00;;;1.45;;
61821;SDS011;47749;51.104;7.008;2024-03-02T01:46:42;3.10;;;1.50;;
61821;SDS011;47749;51.104;7.008;2024-03-02T01:47:02;2.93;;;1.50;;
61821;SDS011;47749;51.104;7.008;2024-03-02T01:47:22;3.10;;;1.55;;
61821;SDS011;47749;51.104;7.008;2024-03-02T01:47:43;2.67;;;1.40;;
61821;SDS011;47749;51.104;7.008;2024-03-02T01:48:04;2.47;;;1.30;;
61821;SDS011;47749;51.104;7.008;2024-03-02T01:48:24;3.42;;;1.50;;
61821;SDS011;47749;51.104;7.008;2024-03-02T01:48:45;2.90;;;1.47;;
61821;SDS011;47749;51.104;7.008;2024-03-02T01:49:05;2.23;;;1.37;;
61821;SDS011;47749;51.104;7.008;2024-03-02T01:49:26;2.38;;;1.30;;
61821;SDS011;47749;51.104;7.008;2024-03-02T01:49:46;3.30;;;1.40;;
61821;SDS011;47749;51.104;7.008;2024-03-02T01:50:07;3.00;;;1.35;;
61821;SDS011;47749;51.104;7.008;2024-03-02T01:50:36;3.28;;;1.45;;
61821;SDS011;47749;51.104;7.008;2024-03-02T01:50:56;3.05;;;1.50;;
61821;SDS011;47749;51.104;7.008;2024-03-02T01:51:17;3.35;;;1.50;;
61821;SDS011;47749;51.104;7.008;2024-03-02T01:51:37;3.37;;;1.50;;
61821;SDS011;47749;51.104;7.008;2024-03-02T01:51:58;3.53;;;1.50;;
61821;SDS011;47749;51.104;7.008;2024-03-02T01:52:18;4.10;;;1.63;;
61821;SDS011;47749;51.104;7.008;2024-03-02T01:52:38;3.50;;;1.70;;
61821;SDS011;47749;51.104;7.008;2024-03-02T01:52:59;3.85;;;1.63;;
61821;SDS011;47749;51.104;7.008;2024-03-02T01:53:19;4.55;;;1.60;;
61821;SDS011;47749;51.104;7.008;2024-03-02T01:53:40;3.40;;;1.47;;
61821;SDS011;47749;51.104;7.008;2024-03-02T01:54:00;4.00;;;1.50;;
61821;SDS011;47749;51.104;7.008;2024-03-02T01:54:20;2.65;;;1.40;;
61821;SDS011;47749;51.104;7.008;2024-03-02T01:54:40;2.60;;;1.50;;
61821;SDS011;47749;51.104;7.008;2024-03-02T01:55:01;3.07;;;1.50;;
61821;SDS011;47749;51.104;7.008;2024-03-02T01:55:21;2.90;;;1.30;;
61821;SDS011;47749;51.104;7.008;2024-03-02T01:55:41;3.78;;;1.40;;
61821;SDS011;47749;51.104;7.008;2024-03-02T01:56:02;2.73;;;1.40;;
61821;SDS011;47749;51.104;7.008;2024-03-02T01:56:22;3.40;;;1.50;;
61821;SDS011;47749;51.104;7.008;2024-03-02T01:56:43;2.80;;;1.50;;
61821;SDS011;47749;51.104;7.008;2024-03-02T01:57:03;3.15;;;1.40;;
61821;SDS011;47749;51.104;7.008;2024-03-02T01:57:23;3.10;;;1.40;;
61821;SDS011;47749;51.104;7.008;2024-03-02T01:57:44;3.43;;;1.40;;
61821;SDS011;47749;51.104;7.008;2024-03-02T01:58:04;3.30;;;1.53;;
61821;SDS011;47749;51.104;7.008;2024-03-02T01:58:25;3.43;;;1.80;;
61821;SDS011;47749;51.104;7.008;2024-03-02T01:58:45;3.00;;;1.50;;
61821;SDS011;47749;51.104;7.008;2024-03-02T01:59:06;3.03;;;1.52;;
61821;SDS011;47749;51.104;7.008;2024-03-02T01:59:26;3.57;;;1.50;;
61821;SDS011;47749;51.104;7.008;2024-03-02T01:59:47;2.83;;;1.42;;
61821;SDS011;47749;51.104;7.008;2024-03-02T02:00:11;3.88;;;1.60;;
61821;SDS011;47749;51.104;7.008;2024-03-02T02:00:34;3.13;;;1.50;;
61821;SDS011;47749;51.104;7.008;2024-03-02T02:00:54;3.13;;;1.40;;
61821;SDS011;47749;51.104;7.008;2024-03-02T02:01:14;2.80;;;1.27;;
61821;SDS011;47749;51.104;7.008;2024-03-02T02:01:34;2.43;;;1.30;;
61821;SDS011;47749;51.104;7.008;2024-03-02T02:01:55;2.77;;;1.40;;
61821;SDS011;47749;51.104;7.008;2024-03-02T02:02:15;3.20;;;1.40;;
61821;SDS011;47749;51.104;7.008;2024-03-02T02:02:35;3.57;;;1.60;;
61821;SDS011;47749;51.104;7.008;2024-03-02T02:02:55;2.80;;;1.40;;
61821;SDS011;47749;51.104;7.008;2024-03-02T02:03:17;2.53;;;1.23;;
61821;SDS011;47749;51.104;7.008;2024-03-02T02:03:38;2.27;;;1.30;;
61821;SDS011;47749;51.104;7.008;2024-03-02T02:03:58;3.22;;;1.30;;
61821;SDS011;47749;51.104;7.008;2024-03-02T02:04:18;3.13;;;1.40;;
61821;SDS011;47749;51.104;7.008;2024-03-02T02:04:41;3.10;;;1.35;;
61821;SDS011;47749;51.104;7.008;2024-03-02T02:05:02;3.45;;;1.50;;
61821;SDS011;47749;51.104;7.008;2024-03-02T02:05:23;3.67;;;1.50;;
61821;SDS011;47749;51.104;7.008;2024-03-02T02:05:43;3.37;;;1.50;;
61821;SDS011;47749;51.104;7.008;2024-03-02T02:06:03;2.38;;;1.23;;
61821;SDS011;47749;51.104;7.008;2024-03-02T02:06:24;4.38;;;1.38;;
61821;SDS011;47749;51.104;7.008;2024-03-02T02:06:45;5.00;;;1.50;;
61821;SDS011;47749;51.104;7.008;2024-03-02T02:07:05;3.30;;;1.40;;
61821;SDS011;47749;51.104;7.008;2024-03-02T02:07:26;2.78;;;1.35;;
61821;SDS011;47749;51.104;7.008;2024-03-02T02:07:47;3.47;;;1.47;;
61821;SDS011;47749;51.104;7.008;2024-03-02T02:08:07;2.95;;;1.45;;
61821;SDS011;47749;51.104;7.008;2024-03-02T02:08:27;3.27;;;1.50;;
61821;SDS011;47749;51.104;7.008;2024-03-02T02:08:47;3.37;;;1.53;;
61821;SDS011;47749;51.104;7.008;2024-03-02T02:09:08;3.17;;;1.33;;